Time;durP1;ratioP1;P1;durP2;ratioP2;P2;SDS_P1;SDS_P2;PMS_P1;PMS_P2;Temp;Humidity;BMP_temperature;BMP_pressure;BME280_temperature;BME280_humidity;BME280_pressure;Samples;Min_cycle;Max_cycle;Signal;HPM_P1;HPM_P2
2021/10/25 00:02:16;;;;;;;;;;;7.90;99.90;;;;;;5007150;28;19926;-75
2021/10/25 00:04:43;;;;;;;;;;;7.90;99.90;;;;;;5005982;28;19925;-74
2021/10/25 00:07:09;;;;;;;;;;;8.00;99.90;;;;;;5006344;28;21663;-74
2021/10/25 00:09:36;;;;;;;;;;;8.10;99.90;;;;;;5003965;28;20571;-74
2021/10/25 00:12:03;;;;;;;;;;;8.20;99.90;;;;;;5008943;28;19976;-74
2021/10/25 00:14:30;;;;;;;;;;;8.30;99.90;;;;;;5007342;28;19926;-74
2021/10/25 00:16:56;;;;;;;;;;;8.40;99.90;;;;;;5007115;28;19933;-74
2021/10/25 00:19:24;;;;;;;;;;;8.50;99.90;;;;;;5005108;28;19926;-75
2021/10/25 00:21:51;;;;;;;;;;;8.50;99.90;;;;;;5006752;28;19932;-74
2021/10/25 00:24:18;;;;;;;;;;;8.60;99.90;;;;;;5007179;28;19925;-74
2021/10/25 00:26:45;;;;;;;;;;;8.70;99.90;;;;;;5006599;28;20020;-74
2021/10/25 00:29:11;;;;;;;;;;;8.70;99.90;;;;;;5003007;28;19932;-74
2021/10/25 00:31:38;;;;;;;;;;;8.80;99.90;;;;;;5007748;28;19936;-74
2021/10/25 00:34:04;;;;;;;;;;;8.80;99.90;;;;;;5006725;28;19933;-74
2021/10/25 00:36:33;;;;;;;;;;;8.90;99.90;;;;;;5008613;28;19925;-74
2021/10/25 00:38:59;;;;;;;;;;;9.00;99.90;;;;;;5007500;28;19925;-74
2021/10/25 00:41:26;;;;;;;;;;;9.10;99.90;;;;;;5007525;28;19926;-74
2021/10/25 00:43:53;;;;;;;;;;;9.10;99.90;;;;;;5005525;28;20020;-74
2021/10/25 00:46:19;;;;;;;;;;;9.20;99.90;;;;;;5005170;28;19929;-74
2021/10/25 00:48:46;;;;;;;;;;;9.20;99.90;;;;;;5005675;28;20303;-74
2021/10/25 00:51:14;;;;;;;;;;;9.20;99.90;;;;;;5005659;28;19941;-73
2021/10/25 00:53:42;;;;;;;;;;;9.20;99.90;;;;;;5006992;28;20285;-74
2021/10/25 00:56:09;;;;;;;;;;;9.20;99.90;;;;;;5006209;28;19932;-74
2021/10/25 00:58:36;;;;;;;;;;;9.20;99.90;;;;;;5003043;28;19925;-74
2021/10/25 01:01:03;;;;;;;;;;;9.20;99.90;;;;;;5006068;28;20008;-74
2021/10/25 01:03:30;;;;;;;;;;;9.20;99.90;;;;;;5003792;28;19933;-74
2021/10/25 01:05:56;;;;;;;;;;;9.20;99.90;;;;;;5006470;28;19926;-74
2021/10/25 01:08:24;;;;;;;;;;;9.20;99.90;;;;;;5003583;28;19925;-73
2021/10/25 01:10:53;;;;;;;;;;;9.30;99.90;;;;;;5005115;28;19961;-74
2021/10/25 01:13:19;;;;;;;;;;;9.30;99.90;;;;;;5004834;28;19925;-74
2021/10/25 01:15:46;;;;;;;;;;;9.40;99.90;;;;;;5006291;28;20380;-74
2021/10/25 01:18:13;;;;;;;;;;;9.30;99.90;;;;;;5004166;28;19926;-73
2021/10/25 01:20:41;;;;;;;;;;;9.30;99.90;;;;;;5005583;28;20407;-73
2021/10/25 01:23:07;;;;;;;;;;;9.30;99.90;;;;;;5005281;28;19933;-73
2021/10/25 01:25:34;;;;;;;;;;;9.30;99.90;;;;;;5007540;28;20351;-73
2021/10/25 01:28:01;;;;;;;;;;;9.30;99.90;;;;;;5003611;28;19934;-74
2021/10/25 01:30:28;;;;;;;;;;;9.30;99.90;;;;;;5007055;28;20395;-74
2021/10/25 01:32:55;;;;;;;;;;;9.40;99.90;;;;;;5006954;28;20316;-74
2021/10/25 01:35:22;;;;;;;;;;;9.40;99.90;;;;;;5010158;28;19925;-74
2021/10/25 01:37:50;;;;;;;;;;;9.40;99.90;;;;;;5009462;28;19932;-75
2021/10/25 01:40:16;;;;;;;;;;;9.30;99.90;;;;;;5010803;28;19925;-74
2021/10/25 01:42:43;;;;;;;;;;;9.40;99.90;;;;;;5006652;28;19961;-74
2021/10/25 01:45:10;;;;;;;;;;;9.40;99.90;;;;;;5009227;28;19944;-74
2021/10/25 01:47:37;;;;;;;;;;;9.40;99.90;;;;;;5008546;28;19932;-75
2021/10/25 01:50:05;;;;;;;;;;;9.50;99.90;;;;;;5009489;28;19982;-74
2021/10/25 01:52:32;;;;;;;;;;;9.50;99.90;;;;;;5009166;28;19979;-74
2021/10/25 01:55:00;;;;;;;;;;;9.50;99.90;;;;;;5001631;28;19936;-73
2021/10/25 01:57:26;;;;;;;;;;;9.50;99.90;;;;;;5005727;28;19925;-73
2021/10/25 01:59:53;;;;;;;;;;;9.50;99.90;;;;;;5009225;28;19933;-73
2021/10/25 02:02:21;;;;;;;;;;;9.50;99.90;;;;;;5009193;28;19925;-73
2021/10/25 02:04:47;;;;;;;;;;;9.50;99.90;;;;;;5006277;28;20392;-74
2021/10/25 02:07:15;;;;;;;;;;;9.50;99.90;;;;;;5009622;28;19934;-74
2021/10/25 02:09:42;;;;;;;;;;;9.50;99.90;;;;;;5009328;28;19926;-73
2021/10/25 02:12:10;;;;;;;;;;;9.50;99.90;;;;;;5013753;28;19929;-74
2021/10/25 02:14:37;;;;;;;;;;;9.50;99.90;;;;;;5008681;28;19929;-74
2021/10/25 02:17:04;;;;;;;;;;;9.50;99.90;;;;;;5008683;28;19932;-73
2021/10/25 02:19:31;;;;;;;;;;;9.50;99.90;;;;;;5011157;28;19925;-73
2021/10/25 02:21:58;;;;;;;;;;;9.50;99.90;;;;;;5015394;28;19929;-73
2021/10/25 02:24:24;;;;;;;;;;;9.50;99.90;;;;;;5009474;28;20396;-73
2021/10/25 02:26:51;;;;;;;;;;;9.50;99.90;;;;;;5006858;28;19925;-73
2021/10/25 02:29:19;;;;;;;;;;;9.50;99.90;;;;;;5008139;28;19925;-74
2021/10/25 02:31:46;;;;;;;;;;;9.40;99.90;;;;;;5007915;28;19933;-73
2021/10/25 02:34:13;;;;;;;;;;;9.50;99.90;;;;;;5006836;28;19932;-73
2021/10/25 02:36:39;;;;;;;;;;;9.50;99.90;;;;;;5007365;28;19944;-73
2021/10/25 02:39:06;;;;;;;;;;;9.50;99.90;;;;;;5008210;28;19944;-73
2021/10/25 02:41:33;;;;;;;;;;;9.50;99.90;;;;;;5008400;28;20384;-74
2021/10/25 02:44:00;;;;;;;;;;;9.50;99.90;;;;;;5008293;28;20387;-73
2021/10/25 02:46:28;;;;;;;;;;;9.50;99.90;;;;;;5008134;28;20032;-74
2021/10/25 02:48:55;;;;;;;;;;;9.50;99.90;;;;;;5008349;28;20414;-73
2021/10/25 02:51:22;;;;;;;;;;;9.50;99.90;;;;;;5009668;28;20349;-74
2021/10/25 02:53:48;;;;;;;;;;;9.50;99.90;;;;;;5006878;28;22406;-74
2021/10/25 02:56:15;;;;;;;;;;;9.40;99.90;;;;;;5007160;28;19926;-74
2021/10/25 02:58:41;;;;;;;;;;;9.40;99.90;;;;;;5005049;28;19925;-74
2021/10/25 03:01:08;;;;;;;;;;;9.40;99.90;;;;;;5007966;28;20024;-73
2021/10/25 03:03:37;;;;;;;;;;;9.50;99.90;;;;;;5006747;28;19929;-73
2021/10/25 03:06:04;;;;;;;;;;;9.60;99.90;;;;;;5009505;28;19933;-73
2021/10/25 03:08:30;;;;;;;;;;;9.60;99.90;;;;;;5007031;28;19930;-73
2021/10/25 03:10:57;;;;;;;;;;;9.70;99.90;;;;;;5006077;28;20043;-74
2021/10/25 03:13:23;;;;;;;;;;;9.70;99.90;;;;;;5005852;28;20422;-74
2021/10/25 03:15:50;;;;;;;;;;;9.80;99.90;;;;;;5007991;28;19932;-74
2021/10/25 03:18:17;;;;;;;;;;;9.80;99.90;;;;;;5003085;28;20303;-74
2021/10/25 03:20:46;;;;;;;;;;;9.80;99.90;;;;;;5009040;28;20008;-73
2021/10/25 03:23:12;;;;;;;;;;;9.90;99.90;;;;;;5004399;28;20494;-74
2021/10/25 03:25:39;;;;;;;;;;;9.90;99.90;;;;;;5008901;28;19925;-74
2021/10/25 03:28:07;;;;;;;;;;;9.90;99.90;;;;;;5006058;28;19932;-74
2021/10/25 03:30:34;;;;;;;;;;;10.00;99.90;;;;;;5007511;28;20384;-73
2021/10/25 03:33:00;;;;;;;;;;;10.00;99.90;;;;;;5005813;28;19994;-74
2021/10/25 03:35:28;;;;;;;;;;;10.00;99.90;;;;;;5006470;28;19936;-73
2021/10/25 03:37:57;;;;;;;;;;;10.00;99.90;;;;;;5007573;28;19926;-74
2021/10/25 03:40:25;;;;;;;;;;;10.00;99.90;;;;;;5006498;28;19933;-74
2021/10/25 03:42:53;;;;;;;;;;;10.00;99.90;;;;;;5006222;28;19930;-73
2021/10/25 03:45:25;;;;;;;;;;;10.00;99.90;;;;;;5006365;28;19978;-73
2021/10/25 03:47:55;;;;;;;;;;;10.00;99.90;;;;;;5006976;28;19926;-73
2021/10/25 03:50:23;;;;;;;;;;;9.90;99.90;;;;;;5005273;28;20016;-73
2021/10/25 03:52:53;;;;;;;;;;;9.90;99.90;;;;;;5005613;28;19965;-73
2021/10/25 03:55:27;;;;;;;;;;;9.90;99.90;;;;;;5007622;28;20013;-74
2021/10/25 04:00:58;;;;;;;;;;;9.90;99.90;;;;;;4991574;28;20824;-73
2021/10/25 04:03:48;;;;;;;;;;;9.90;99.90;;;;;;5005243;28;20300;-75
2021/10/25 04:28:09;;;;;;;;;;;9.90;99.90;;;;;;5002208;28;19940;-74
2021/10/25 04:30:36;;;;;;;;;;;9.90;99.90;;;;;;5005808;28;19933;-74
2021/10/25 04:33:03;;;;;;;;;;;9.90;99.90;;;;;;5004167;28;19925;-74
2021/10/25 04:35:30;;;;;;;;;;;9.90;99.90;;;;;;5008225;28;20291;-74
2021/10/25 04:37:57;;;;;;;;;;;9.90;99.90;;;;;;5003380;28;19948;-74
2021/10/25 04:40:24;;;;;;;;;;;9.90;99.90;;;;;;5006904;28;19937;-74
2021/10/25 04:42:51;;;;;;;;;;;10.00;99.90;;;;;;5005425;28;19925;-72
2021/10/25 04:45:19;;;;;;;;;;;10.00;99.90;;;;;;5006629;28;19926;-72
2021/10/25 04:47:46;;;;;;;;;;;10.00;99.90;;;;;;5005341;28;20388;-71
2021/10/25 04:50:13;;;;;;;;;;;10.00;99.90;;;;;;5007579;28;19926;-72
2021/10/25 04:52:40;;;;;;;;;;;10.00;99.90;;;;;;5005009;28;20391;-72
2021/10/25 04:55:07;;;;;;;;;;;10.00;99.90;;;;;;5005239;28;19926;-71
2021/10/25 04:57:33;;;;;;;;;;;10.00;99.90;;;;;;5006384;28;19931;-72
2021/10/25 05:00:00;;;;;;;;;;;10.00;99.90;;;;;;5001974;28;19929;-72
2021/10/25 05:02:28;;;;;;;;;;;10.00;99.90;;;;;;5004872;28;19969;-72
2021/10/25 05:04:55;;;;;;;;;;;10.00;99.90;;;;;;5002613;28;19933;-72
2021/10/25 05:07:22;;;;;;;;;;;10.00;99.90;;;;;;4985279;28;19929;-72
2021/10/25 05:09:48;;;;;;;;;;;10.00;99.90;;;;;;4998189;28;19987;-72
2021/10/25 05:12:15;;;;;;;;;;;10.00;99.90;;;;;;5003008;28;19926;-71
2021/10/25 05:14:42;;;;;;;;;;;10.00;99.90;;;;;;5001260;28;19999;-72
2021/10/25 05:17:09;;;;;;;;;;;10.00;99.90;;;;;;4996805;28;19956;-72
2021/10/25 05:19:37;;;;;;;;;;;10.00;99.90;;;;;;5001600;28;20053;-73
2021/10/25 05:22:04;;;;;;;;;;;10.00;99.90;;;;;;5002724;28;19931;-72
2021/10/25 05:24:32;;;;;;;;;;;10.00;99.90;;;;;;5000993;28;19933;-72
2021/10/25 05:26:58;;;;;;;;;;;10.10;99.90;;;;;;5004343;28;20016;-72
2021/10/25 05:29:25;;;;;;;;;;;10.10;99.90;;;;;;5004446;28;20008;-72
2021/10/25 05:31:53;;;;;;;;;;;10.10;99.90;;;;;;5004472;28;20016;-73
2021/10/25 05:34:20;;;;;;;;;;;10.10;99.90;;;;;;5000764;28;20397;-72
2021/10/25 05:36:48;;;;;;;;;;;10.10;99.90;;;;;;5001189;28;20381;-72
2021/10/25 05:39:15;;;;;;;;;;;10.20;99.90;;;;;;4996704;28;19939;-73
2021/10/25 05:41:44;;;;;;;;;;;10.20;99.90;;;;;;5003816;28;19933;-73
2021/10/25 05:44:11;;;;;;;;;;;10.20;99.90;;;;;;5001627;28;19965;-74
2021/10/25 05:46:38;;;;;;;;;;;10.20;99.90;;;;;;5004900;28;20398;-73
2021/10/25 05:49:04;;;;;;;;;;;10.20;99.90;;;;;;5003154;28;19965;-73
2021/10/25 05:51:32;;;;;;;;;;;10.30;99.90;;;;;;5012033;28;19994;-73
2021/10/25 05:54:03;;;;;;;;;;;10.30;99.90;;;;;;5009525;28;20342;-73
2021/10/25 05:56:30;;;;;;;;;;;10.30;99.90;;;;;;5006104;28;19986;-73
2021/10/25 05:58:57;;;;;;;;;;;10.30;99.90;;;;;;5002993;28;19933;-73
2021/10/25 06:01:28;;;;;;;;;;;10.30;99.90;;;;;;5008062;28;19968;-73
2021/10/25 06:03:59;;;;;;;;;;;10.30;99.90;;;;;;5002418;28;20380;-73
2021/10/25 06:06:26;;;;;;;;;;;10.30;99.90;;;;;;5002228;28;19926;-73
2021/10/25 06:08:52;;;;;;;;;;;10.40;99.90;;;;;;5005288;28;20269;-74
2021/10/25 06:11:20;;;;;;;;;;;10.40;99.90;;;;;;4997384;28;19925;-72
2021/10/25 06:13:47;;;;;;;;;;;10.40;99.90;;;;;;5003475;28;19978;-73
2021/10/25 06:16:15;;;;;;;;;;;10.40;99.90;;;;;;4996057;28;19995;-72
2021/10/25 06:18:42;;;;;;;;;;;10.40;99.90;;;;;;5005000;28;19926;-71
2021/10/25 06:21:09;;;;;;;;;;;10.40;99.90;;;;;;5005836;28;20013;-72
2021/10/25 06:23:36;;;;;;;;;;;10.40;99.90;;;;;;5004606;28;19969;-72
2021/10/25 06:26:03;;;;;;;;;;;10.40;99.90;;;;;;4997568;28;19926;-73
2021/10/25 06:28:32;;;;;;;;;;;10.40;99.90;;;;;;4998695;28;20345;-73
2021/10/25 06:31:01;;;;;;;;;;;10.40;99.90;;;;;;5003031;28;19926;-73
2021/10/25 06:33:29;;;;;;;;;;;10.50;99.90;;;;;;5002340;28;19972;-74
2021/10/25 06:36:03;;;;;;;;;;;10.40;99.90;;;;;;5004691;28;19930;-76
2021/10/25 06:38:35;;;;;;;;;;;10.40;99.90;;;;;;5005041;28;19934;-75
2021/10/25 06:41:03;;;;;;;;;;;10.40;99.90;;;;;;5007390;28;19965;-74
2021/10/25 06:43:30;;;;;;;;;;;10.40;99.90;;;;;;4998810;28;20447;-75
2021/10/25 06:45:59;;;;;;;;;;;10.40;99.90;;;;;;5000903;28;20024;-74
2021/10/25 06:48:25;;;;;;;;;;;10.40;99.90;;;;;;5002142;28;20331;-73
2021/10/25 06:50:52;;;;;;;;;;;10.40;99.90;;;;;;5005604;28;19936;-73
2021/10/25 06:53:19;;;;;;;;;;;10.40;99.90;;;;;;5003412;28;19934;-73
2021/10/25 06:55:46;;;;;;;;;;;10.40;99.90;;;;;;5007964;28;20378;-73
2021/10/25 06:58:13;;;;;;;;;;;10.50;99.90;;;;;;5001414;28;20269;-72
2021/10/25 07:00:40;;;;;;;;;;;10.50;99.90;;;;;;5001431;28;20045;-72
2021/10/25 07:03:08;;;;;;;;;;;10.50;99.90;;;;;;4998857;28;19933;-74
2021/10/25 07:05:36;;;;;;;;;;;10.50;99.90;;;;;;5002135;28;19982;-74
2021/10/25 07:08:03;;;;;;;;;;;10.50;99.90;;;;;;4998385;28;20230;-73
2021/10/25 07:10:30;;;;;;;;;;;10.50;99.90;;;;;;5004341;28;20779;-73
2021/10/25 07:12:57;;;;;;;;;;;10.50;99.90;;;;;;5002623;28;19943;-75
2021/10/25 07:15:24;;;;;;;;;;;10.50;99.90;;;;;;5003900;28;19925;-73
2021/10/25 07:17:54;;;;;;;;;;;10.60;99.90;;;;;;5003333;28;20012;-74
2021/10/25 07:26:43;;;;;;;;;;;10.60;99.90;;;;;;4950428;28;19934;-73
2021/10/25 08:07:44;;;;;;;;;;;11.00;99.90;;;;;;5001417;28;20304;-74
2021/10/25 08:10:15;;;;;;;;;;;11.00;99.90;;;;;;5003243;28;20392;-74
2021/10/25 08:12:46;;;;;;;;;;;11.10;99.90;;;;;;5001337;28;19932;-75
2021/10/25 08:15:20;;;;;;;;;;;11.20;99.90;;;;;;5001207;28;19934;-73
2021/10/25 08:17:50;;;;;;;;;;;11.20;99.90;;;;;;5005349;28;20056;-72
2021/10/25 08:20:17;;;;;;;;;;;11.10;99.90;;;;;;5001065;28;19925;-73
2021/10/25 08:22:44;;;;;;;;;;;11.00;99.90;;;;;;5003725;28;20016;-73
2021/10/25 08:25:10;;;;;;;;;;;11.10;99.90;;;;;;5002278;28;20021;-73
2021/10/25 08:27:39;;;;;;;;;;;11.10;99.90;;;;;;5003867;28;20292;-73
2021/10/25 08:30:06;;;;;;;;;;;11.10;99.90;;;;;;5004405;28;20019;-74
2021/10/25 08:35:29;;;;;;;;;;;11.10;99.90;;;;;;5002780;28;19932;-73
2021/10/25 08:40:41;;;;;;;;;;;11.10;99.90;;;;;;5005188;28;19932;-73
2021/10/25 08:43:10;;;;;;;;;;;11.20;99.90;;;;;;5004704;28;19926;-73
2021/10/25 08:45:38;;;;;;;;;;;11.20;99.90;;;;;;5002875;28;19925;-73
2021/10/25 08:48:05;;;;;;;;;;;11.20;99.90;;;;;;5001946;28;20050;-73
2021/10/25 08:50:34;;;;;;;;;;;11.20;99.90;;;;;;4998674;28;20010;-73
2021/10/25 08:53:01;;;;;;;;;;;11.20;99.90;;;;;;4998059;28;20419;-73
2021/10/25 08:55:28;;;;;;;;;;;11.30;99.90;;;;;;5000780;28;19973;-73
2021/10/25 08:57:55;;;;;;;;;;;11.30;99.90;;;;;;5000994;28;19936;-72
2021/10/25 09:00:34;;;;;;;;;;;11.30;99.90;;;;;;5003860;28;19940;-71
2021/10/25 09:03:02;;;;;;;;;;;11.30;99.90;;;;;;5001831;28;19946;-73
2021/10/25 09:05:29;;;;;;;;;;;11.20;99.90;;;;;;4999378;28;19934;-72
2021/10/25 09:07:58;;;;;;;;;;;11.20;99.90;;;;;;5002895;28;19926;-73
2021/10/25 09:10:25;;;;;;;;;;;11.20;99.90;;;;;;5000748;28;20451;-72
2021/10/25 09:12:53;;;;;;;;;;;11.30;99.90;;;;;;4999073;28;19933;-73
2021/10/25 09:15:19;;;;;;;;;;;11.20;99.90;;;;;;5000785;28;19926;-73
2021/10/25 09:17:47;;;;;;;;;;;11.30;99.90;;;;;;5000291;28;20304;-74
2021/10/25 09:20:16;;;;;;;;;;;11.40;99.90;;;;;;4996498;28;19926;-75
2021/10/25 09:22:43;;;;;;;;;;;11.50;99.90;;;;;;5002117;28;19969;-73
2021/10/25 09:25:10;;;;;;;;;;;11.70;99.90;;;;;;4994485;28;19980;-74
2021/10/25 09:27:40;;;;;;;;;;;11.90;99.90;;;;;;5002774;28;19926;-73
2021/10/25 09:30:09;;;;;;;;;;;12.00;99.90;;;;;;5002013;28;19940;-73
2021/10/25 09:32:36;;;;;;;;;;;12.10;99.90;;;;;;5000131;28;19939;-74
2021/10/25 09:35:05;;;;;;;;;;;12.10;99.90;;;;;;4999038;28;19933;-74
2021/10/25 09:37:38;;;;;;;;;;;12.10;99.90;;;;;;5002812;28;20287;-74
2021/10/25 09:40:09;;;;;;;;;;;12.10;99.90;;;;;;4999872;28;20691;-73
2021/10/25 09:45:48;;;;;;;;;;;12.00;99.90;;;;;;5001582;28;20380;-74
2021/10/25 09:51:02;;;;;;;;;;;11.90;99.90;;;;;;5001140;28;19932;-73
2021/10/25 09:53:30;;;;;;;;;;;12.00;99.90;;;;;;5003817;28;19978;-75
2021/10/25 09:55:57;;;;;;;;;;;12.50;99.90;;;;;;5007353;28;19926;-74
2021/10/25 09:58:27;;;;;;;;;;;12.80;99.90;;;;;;5004706;28;19933;-73
2021/10/25 10:00:54;;;;;;;;;;;13.00;99.90;;;;;;5005814;28;20660;-74
2021/10/25 10:03:21;;;;;;;;;;;13.00;99.90;;;;;;5002124;28;19974;-74
2021/10/25 10:05:50;;;;;;;;;;;13.00;99.90;;;;;;5002784;28;19930;-73
2021/10/25 10:08:19;;;;;;;;;;;13.00;99.90;;;;;;5001738;28;19933;-73
2021/10/25 10:10:46;;;;;;;;;;;13.00;99.90;;;;;;5005650;28;19925;-74
2021/10/25 10:13:16;;;;;;;;;;;13.10;99.90;;;;;;5005415;28;19926;-74
2021/10/25 10:15:43;;;;;;;;;;;13.40;99.90;;;;;;5002445;28;20032;-76
2021/10/25 10:18:11;;;;;;;;;;;13.40;99.90;;;;;;5005522;28;19929;-75
2021/10/25 10:20:41;;;;;;;;;;;13.50;99.90;;;;;;5004626;28;19932;-73
2021/10/25 10:23:10;;;;;;;;;;;13.70;99.90;;;;;;5005039;28;19933;-74
2021/10/25 10:25:39;;;;;;;;;;;13.70;99.90;;;;;;5006058;28;19934;-73
2021/10/25 10:28:07;;;;;;;;;;;13.80;99.90;;;;;;5002776;28;19965;-73
2021/10/25 10:30:48;;;;;;;;;;;13.80;99.90;;;;;;5003901;28;19936;-74
2021/10/25 10:33:15;;;;;;;;;;;13.70;99.90;;;;;;5000916;28;19933;-74
2021/10/25 10:35:43;;;;;;;;;;;13.50;99.90;;;;;;5004891;28;19925;-74
2021/10/25 10:38:10;;;;;;;;;;;13.30;99.90;;;;;;5002835;28;20393;-72
2021/10/25 10:40:40;;;;;;;;;;;13.30;99.90;;;;;;5005810;28;19932;-74
2021/10/25 10:43:08;;;;;;;;;;;13.50;99.90;;;;;;5002747;28;20295;-74
2021/10/25 10:45:35;;;;;;;;;;;13.50;99.90;;;;;;5006735;28;19929;-74
2021/10/25 10:48:03;;;;;;;;;;;13.50;99.90;;;;;;5003132;28;19926;-74
2021/10/25 10:50:36;;;;;;;;;;;13.40;99.90;;;;;;5002885;28;20292;-73
2021/10/25 10:53:07;;;;;;;;;;;13.20;99.90;;;;;;5002699;28;20181;-73
2021/10/25 10:55:38;;;;;;;;;;;13.20;99.90;;;;;;5001401;28;19930;-72
2021/10/25 10:58:25;;;;;;;;;;;13.10;99.90;;;;;;5005780;28;19937;-73
2021/10/25 11:01:00;;;;;;;;;;;13.00;99.90;;;;;;5001360;28;20413;-72
2021/10/25 11:03:28;;;;;;;;;;;13.10;99.90;;;;;;5002355;28;19932;-72
2021/10/25 11:05:59;;;;;;;;;;;13.10;99.90;;;;;;5006556;28;19935;-73
2021/10/25 11:08:29;;;;;;;;;;;13.20;99.90;;;;;;5004640;28;19957;-73
2021/10/25 11:11:01;;;;;;;;;;;13.20;99.90;;;;;;5000579;28;19932;-75
2021/10/25 11:13:32;;;;;;;;;;;13.10;99.90;;;;;;5003340;28;20432;-74
2021/10/25 11:16:02;;;;;;;;;;;13.10;99.90;;;;;;5007150;28;19929;-74
2021/10/25 11:18:29;;;;;;;;;;;13.10;99.90;;;;;;5002734;28;20016;-74
2021/10/25 11:21:09;;;;;;;;;;;13.10;99.90;;;;;;5002257;28;20265;-74
2021/10/25 11:23:38;;;;;;;;;;;13.10;99.90;;;;;;5002973;28;19926;-73
2021/10/25 11:26:10;;;;;;;;;;;13.20;99.90;;;;;;5005853;28;20491;-72
2021/10/25 11:28:38;;;;;;;;;;;13.30;99.90;;;;;;5001264;28;20028;-74
2021/10/25 11:31:05;;;;;;;;;;;13.30;99.90;;;;;;5003796;28;19926;-71
2021/10/25 11:33:32;;;;;;;;;;;13.50;99.90;;;;;;5001889;28;19926;-72
2021/10/25 11:35:59;;;;;;;;;;;13.50;99.90;;;;;;5002000;28;19926;-72
2021/10/25 11:38:27;;;;;;;;;;;13.80;99.90;;;;;;5003271;28;19933;-73
2021/10/25 11:40:53;;;;;;;;;;;13.80;99.90;;;;;;5005724;28;19926;-74
2021/10/25 11:43:28;;;;;;;;;;;13.80;99.90;;;;;;5004548;28;20252;-73
2021/10/25 11:45:56;;;;;;;;;;;13.70;99.90;;;;;;5004298;28;19929;-73
2021/10/25 11:48:27;;;;;;;;;;;13.50;99.90;;;;;;5002022;28;19926;-73
2021/10/25 11:50:58;;;;;;;;;;;13.50;99.90;;;;;;5005528;28;20400;-73
2021/10/25 11:53:28;;;;;;;;;;;13.60;99.90;;;;;;4999624;28;19933;-73
2021/10/25 11:55:55;;;;;;;;;;;13.50;99.90;;;;;;5005055;28;19932;-74
2021/10/25 11:58:23;;;;;;;;;;;13.40;99.90;;;;;;5003226;28;19925;-73
2021/10/25 12:00:54;;;;;;;;;;;13.60;99.90;;;;;;5006703;28;20412;-74
2021/10/25 12:03:24;;;;;;;;;;;13.60;99.90;;;;;;5001113;28;20072;-72
2021/10/25 12:05:50;;;;;;;;;;;13.50;99.90;;;;;;5002688;28;19930;-71
2021/10/25 12:08:17;;;;;;;;;;;13.50;99.90;;;;;;5000967;28;19926;-72
2021/10/25 12:10:46;;;;;;;;;;;13.70;99.90;;;;;;5001357;28;20245;-72
2021/10/25 12:13:12;;;;;;;;;;;13.60;99.90;;;;;;5000502;28;20004;-72
2021/10/25 12:15:41;;;;;;;;;;;13.50;99.90;;;;;;5002001;28;20381;-71
2021/10/25 12:18:08;;;;;;;;;;;13.50;99.90;;;;;;5005107;28;19930;-72
2021/10/25 12:20:36;;;;;;;;;;;13.50;99.90;;;;;;5001299;28;19933;-72
2021/10/25 12:23:04;;;;;;;;;;;13.60;99.90;;;;;;5003403;28;19925;-72
2021/10/25 12:25:32;;;;;;;;;;;13.70;99.90;;;;;;5001592;28;19932;-72
2021/10/25 12:28:00;;;;;;;;;;;13.80;99.90;;;;;;5002281;28;20388;-73
2021/10/25 12:30:28;;;;;;;;;;;13.70;99.90;;;;;;5005546;28;19981;-72
2021/10/25 12:32:56;;;;;;;;;;;13.80;99.90;;;;;;5003339;28;19933;-74
2021/10/25 12:35:38;;;;;;;;;;;13.80;99.90;;;;;;5002688;28;19932;-72
2021/10/25 12:38:06;;;;;;;;;;;13.70;99.90;;;;;;5000539;28;19926;-73
2021/10/25 12:40:37;;;;;;;;;;;13.80;99.90;;;;;;5004967;28;19926;-72
2021/10/25 12:43:04;;;;;;;;;;;13.80;99.90;;;;;;5004174;28;19983;-73
2021/10/25 12:45:35;;;;;;;;;;;13.90;99.90;;;;;;5002440;28;19925;-72
2021/10/25 12:48:01;;;;;;;;;;;13.90;99.90;;;;;;5005567;28;19925;-73
2021/10/25 12:50:32;;;;;;;;;;;13.80;99.90;;;;;;5002682;28;19932;-73
2021/10/25 12:53:04;;;;;;;;;;;13.80;99.90;;;;;;5003628;28;20302;-72
2021/10/25 12:55:32;;;;;;;;;;;13.80;99.90;;;;;;5004571;28;20406;-72
2021/10/25 12:57:59;;;;;;;;;;;13.70;99.90;;;;;;5003266;28;19930;-72
2021/10/25 13:00:26;;;;;;;;;;;13.70;99.90;;;;;;5004076;28;19925;-73
2021/10/25 13:02:53;;;;;;;;;;;13.60;99.90;;;;;;5000464;28;19947;-73
2021/10/25 13:05:21;;;;;;;;;;;13.50;99.90;;;;;;5000659;28;19947;-73
2021/10/25 13:07:49;;;;;;;;;;;13.50;99.90;;;;;;4999539;28;20365;-72
2021/10/25 13:10:17;;;;;;;;;;;13.50;99.90;;;;;;4989861;28;19933;-73
2021/10/25 13:12:44;;;;;;;;;;;13.40;99.90;;;;;;4999338;28;20407;-73
2021/10/25 13:15:11;;;;;;;;;;;13.50;99.90;;;;;;5004730;28;19925;-73
2021/10/25 13:17:38;;;;;;;;;;;13.50;99.90;;;;;;5002920;28;19925;-72
2021/10/25 13:20:05;;;;;;;;;;;13.60;99.90;;;;;;5004558;28;19929;-73
2021/10/25 13:22:32;;;;;;;;;;;13.70;99.90;;;;;;4999445;28;19933;-72
2021/10/25 13:24:59;;;;;;;;;;;13.80;99.90;;;;;;4999082;28;19936;-73
2021/10/25 13:27:27;;;;;;;;;;;13.90;99.90;;;;;;4997923;28;20311;-72
2021/10/25 13:29:53;;;;;;;;;;;14.00;99.90;;;;;;5004334;28;19926;-72
2021/10/25 13:32:21;;;;;;;;;;;14.00;99.90;;;;;;5002649;28;19926;-73
2021/10/25 13:34:48;;;;;;;;;;;14.10;99.90;;;;;;5003076;28;19979;-72
2021/10/25 13:37:15;;;;;;;;;;;14.10;99.90;;;;;;5001748;28;19926;-72
2021/10/25 13:39:42;;;;;;;;;;;14.10;99.90;;;;;;5003608;28;19925;-72
2021/10/25 13:42:08;;;;;;;;;;;14.10;99.90;;;;;;5003039;28;19929;-72
2021/10/25 13:44:37;;;;;;;;;;;14.20;99.90;;;;;;4998786;28;20339;-72
2021/10/25 13:47:03;;;;;;;;;;;14.10;99.90;;;;;;5002483;28;20395;-74
2021/10/25 13:49:30;;;;;;;;;;;14.10;99.90;;;;;;5002063;28;19929;-73
2021/10/25 13:51:57;;;;;;;;;;;14.10;99.90;;;;;;5000099;28;20362;-72
2021/10/25 13:54:24;;;;;;;;;;;14.00;99.90;;;;;;4999210;28;20417;-72
2021/10/25 13:56:51;;;;;;;;;;;14.00;99.90;;;;;;5002047;28;19925;-72
2021/10/25 13:59:18;;;;;;;;;;;14.00;99.90;;;;;;5001174;28;19932;-72
2021/10/25 14:01:46;;;;;;;;;;;14.00;99.90;;;;;;5003196;28;19937;-72
2021/10/25 14:04:16;;;;;;;;;;;14.10;99.90;;;;;;5001688;28;19940;-72
2021/10/25 14:06:43;;;;;;;;;;;14.20;99.90;;;;;;5002839;28;20374;-72
2021/10/25 14:09:10;;;;;;;;;;;14.20;99.90;;;;;;5002164;28;20299;-72
2021/10/25 14:11:40;;;;;;;;;;;14.10;99.90;;;;;;5003555;28;20012;-72
2021/10/25 14:14:18;;;;;;;;;;;14.00;99.90;;;;;;4997478;28;19932;-73
2021/10/25 14:16:50;;;;;;;;;;;13.90;99.90;;;;;;5002360;28;20411;-72
2021/10/25 14:19:18;;;;;;;;;;;13.80;99.90;;;;;;4999822;28;20028;-72
2021/10/25 14:21:44;;;;;;;;;;;13.70;99.90;;;;;;4999301;28;20048;-72
2021/10/25 14:24:11;;;;;;;;;;;13.70;99.90;;;;;;5001158;28;19929;-73
2021/10/25 14:26:38;;;;;;;;;;;13.70;99.90;;;;;;5000994;28;19932;-73
2021/10/25 14:29:05;;;;;;;;;;;13.70;99.90;;;;;;4999173;28;20032;-72
2021/10/25 14:31:33;;;;;;;;;;;13.60;99.90;;;;;;5002962;28;20390;-72
2021/10/25 14:34:01;;;;;;;;;;;13.60;99.90;;;;;;4996753;28;19972;-72
2021/10/25 14:36:28;;;;;;;;;;;13.60;99.90;;;;;;4999077;28;20001;-71
2021/10/25 14:39:07;;;;;;;;;;;13.60;99.90;;;;;;5000109;28;20373;-72
2021/10/25 14:41:48;;;;;;;;;;;13.50;99.90;;;;;;5002504;28;19925;-71
2021/10/25 14:44:23;;;;;;;;;;;13.50;99.90;;;;;;5002864;28;19929;-73
2021/10/25 14:46:59;;;;;;;;;;;13.60;99.90;;;;;;4999692;28;19974;-72
2021/10/25 14:54:56;;;;;;;;;;;13.40;99.90;;;;;;4948536;28;20428;-72
2021/10/25 14:57:23;;;;;;;;;;;13.40;99.90;;;;;;5001688;28;19929;-73
2021/10/25 14:59:52;;;;;;;;;;;13.40;99.90;;;;;;5002374;28;19945;-71
2021/10/25 15:02:20;;;;;;;;;;;13.30;99.90;;;;;;4997181;28;20379;-71
2021/10/25 15:04:49;;;;;;;;;;;13.30;99.90;;;;;;4999174;28;19934;-72
2021/10/25 15:07:21;;;;;;;;;;;13.30;99.90;;;;;;5002878;28;20134;-73
2021/10/25 15:09:48;;;;;;;;;;;13.20;99.90;;;;;;4998853;28;19934;-71
2021/10/25 15:12:15;;;;;;;;;;;13.10;99.90;;;;;;5004482;28;19933;-72
2021/10/25 15:14:43;;;;;;;;;;;13.10;99.90;;;;;;5002320;28;19952;-74
2021/10/25 15:17:10;;;;;;;;;;;13.00;99.90;;;;;;5004286;28;20300;-75
2021/10/25 15:19:37;;;;;;;;;;;12.80;99.90;;;;;;5001857;28;19936;-72
2021/10/25 15:22:07;;;;;;;;;;;12.80;99.90;;;;;;5000547;28;19937;-74
2021/10/25 15:24:36;;;;;;;;;;;12.80;99.90;;;;;;4996958;28;19925;-73
2021/10/25 15:27:03;;;;;;;;;;;12.70;99.90;;;;;;4994393;28;20748;-72
2021/10/25 15:29:30;;;;;;;;;;;12.70;99.90;;;;;;5002209;28;19925;-74
2021/10/25 15:31:57;;;;;;;;;;;12.70;99.90;;;;;;5004700;28;19934;-73
2021/10/25 15:34:24;;;;;;;;;;;12.60;99.90;;;;;;5002345;28;20012;-75
2021/10/25 15:36:50;;;;;;;;;;;12.60;99.90;;;;;;5006772;28;19925;-73
2021/10/25 15:39:18;;;;;;;;;;;12.60;99.90;;;;;;4999744;28;20289;-73
2021/10/25 15:41:45;;;;;;;;;;;12.50;99.90;;;;;;5006730;28;19925;-70
2021/10/25 15:44:14;;;;;;;;;;;12.50;99.90;;;;;;5002998;28;19925;-73
2021/10/25 15:46:40;;;;;;;;;;;12.50;99.90;;;;;;4990090;28;20397;-71
2021/10/25 15:49:08;;;;;;;;;;;12.40;99.90;;;;;;5002278;28;19926;-72
2021/10/25 15:51:36;;;;;;;;;;;12.40;99.90;;;;;;5001632;28;20387;-73
2021/10/25 15:54:03;;;;;;;;;;;12.30;99.90;;;;;;5003368;28;20524;-73